Decoded Metar for SAZN (NEUQUEN in ARGENTINA) (IATA:NQN) | Meteo·Mobile Aviation Weather
aviador You're here:

SAZN Decoded Metar

NEUQUEN in ARGENTINA
Report Time2018-09-23 14:00:00
UTC Time2018-09-23 14:54:09
Flight Rules vfr VFR
Wind250° at 10 kt
W.Decomp.*RWY 27: 9.1 kt HW 4.1 kt LCW
W.Rank250° ranks 4
Current wind is above 250° avg. (7.1)
Visibility9999 m
Phenomena:N/A
Clouds:Few 040 Hf
Scattered 100 Hf
Expected CloudBase > 6,400 ft AGL from Temp-Dew spread
CeilingNone
Temp15°C (ISA +2)
Dew Point-1°C (34% RH)
AAT9.3°C
QNH1015 hPa
Density Alt1,112 ft
Elevation889 ft
Report Wrong Elevation
Raw Report
SAZN 231400Z 25010KT 9999 FEW040 SCT100 15/M01 Q1015=

Extra information for SAZN:More info

Metar Taf Metar & Taf Last 4 Metars F.Rules Stats Wind Profile Meteogram Temp Stats Airport Information Weather charts Add Link Nearby VenuesMetar ALERT Operation Metar Decoded Social comments